createdAt,value
2017-08-05T00:00:46.694Z,17.56
2017-08-05T00:01:59.021Z,17.56
2017-08-05T00:03:11.007Z,17.53
2017-08-05T00:04:23.614Z,17.54
2017-08-05T00:05:35.878Z,17.49
2017-08-05T00:06:48.471Z,17.41
2017-08-05T00:08:00.774Z,17.42
2017-08-05T00:09:13.103Z,17.41
2017-08-05T00:10:25.898Z,17.38
2017-08-05T00:11:38.210Z,17.41
2017-08-05T00:12:50.550Z,17.31
2017-08-05T00:14:03.180Z,17.35
2017-08-05T00:15:15.473Z,17.32
2017-08-05T00:16:27.811Z,17.27
2017-08-05T00:17:40.368Z,17.31
2017-08-05T00:18:53.081Z,17.28
2017-08-05T00:20:05.628Z,17.24
2017-08-05T00:21:17.601Z,17.32
2017-08-05T00:22:30.202Z,17.31
2017-08-05T00:23:42.807Z,17.32
2017-08-05T00:24:55.358Z,17.28
2017-08-05T00:26:07.909Z,17.31
2017-08-05T00:27:20.503Z,17.37
2017-08-05T00:28:33.062Z,17.39
2017-08-05T00:29:45.718Z,17.31
2017-08-05T00:30:57.954Z,17.32
2017-08-05T00:32:10.562Z,17.39
2017-08-05T00:33:22.889Z,17.41
2017-08-05T00:34:35.457Z,17.39
2017-08-05T00:35:47.757Z,17.35
2017-08-05T00:37:00.045Z,17.44
2017-08-05T00:38:12.005Z,17.47
2017-08-05T00:39:24.600Z,17.34
2017-08-05T00:40:36.915Z,17.39
2017-08-05T00:41:49.533Z,17.37
2017-08-05T00:43:02.015Z,17.35
2017-08-05T00:44:14.291Z,17.35
2017-08-05T00:45:26.841Z,17.32
2017-08-05T00:46:39.426Z,17.28
2017-08-05T00:47:52.030Z,17.27
2017-08-05T00:49:04.589Z,17.24
2017-08-05T00:50:16.578Z,17.28
2017-08-05T00:51:29.130Z,17.2
2017-08-05T00:52:41.769Z,17.14
2017-08-05T00:53:54.384Z,17.16
2017-08-05T00:55:07.008Z,17.12
2017-08-05T00:56:19.300Z,17.1
2017-08-05T00:57:31.835Z,17.05
2017-08-05T00:58:44.142Z,17.02
2017-08-05T00:59:56.766Z,17.04
2017-08-05T01:01:09.361Z,17.05
2017-08-05T01:02:22.017Z,17.04
2017-08-05T01:03:34.629Z,16.99
2017-08-05T01:04:47.241Z,16.95
2017-08-05T01:05:59.819Z,16.95
2017-08-05T01:07:12.063Z,16.97
2017-08-05T01:08:24.697Z,16.94
2017-08-05T01:09:37.034Z,16.89
2017-08-05T01:10:49.357Z,16.86
2017-08-05T01:12:01.966Z,16.86
2017-08-05T01:13:14.519Z,16.69
2017-08-05T01:14:26.833Z,16.83
2017-08-05T01:15:39.122Z,16.8
2017-08-05T01:16:51.767Z,16.76
2017-08-05T01:18:04.355Z,16.73
2017-08-05T01:19:16.656Z,16.86
2017-08-05T01:20:29.206Z,16.8
2017-08-05T01:21:41.764Z,16.79
2017-08-05T01:22:54.368Z,16.77
2017-08-05T01:24:06.983Z,16.79
2017-08-05T01:25:19.236Z,16.77
2017-08-05T01:26:31.841Z,16.76
2017-08-05T01:27:44.445Z,16.86
2017-08-05T01:28:57.009Z,16.77
2017-08-05T01:30:09.253Z,16.77
2017-08-05T01:31:21.859Z,16.79
2017-08-05T01:32:34.178Z,16.76
2017-08-05T01:33:46.742Z,16.79
2017-08-05T01:34:59.376Z,16.79
2017-08-05T01:36:11.958Z,16.73
2017-08-05T01:37:24.571Z,16.74
2017-08-05T01:38:36.890Z,16.82
2017-08-05T01:39:49.512Z,16.84
2017-08-05T01:41:02.159Z,16.8
2017-08-05T01:42:14.398Z,16.73
2017-08-05T01:43:26.689Z,16.82
2017-08-05T01:44:38.638Z,16.86
2017-08-05T01:45:51.188Z,16.86
2017-08-05T01:47:03.489Z,16.87
2017-08-05T01:48:16.327Z,16.86
2017-08-05T01:49:28.895Z,16.87
2017-08-05T01:50:41.533Z,16.91
2017-08-05T01:51:53.493Z,16.83
2017-08-05T01:53:05.821Z,16.87
2017-08-05T01:54:18.391Z,16.83
2017-08-05T01:55:30.653Z,16.87
2017-08-05T01:56:42.929Z,16.89
2017-08-05T01:57:55.572Z,16.82
2017-08-05T01:59:08.181Z,16.72
2017-08-05T02:00:20.177Z,16.76
2017-08-05T02:01:32.754Z,16.79
2017-08-05T02:02:45.358Z,16.8
2017-08-05T02:03:57.675Z,16.76
2017-08-05T02:05:10.321Z,16.74
2017-08-05T02:06:22.000Z,16.72
2017-08-05T02:07:34.587Z,16.68
2017-08-05T02:08:47.158Z,16.64
2017-08-05T02:09:59.725Z,16.62
2017-08-05T02:11:12.048Z,16.69
2017-08-05T02:12:24.686Z,16.59
2017-08-05T02:13:37.313Z,16.66
2017-08-05T02:14:49.917Z,16.57
2017-08-05T02:16:02.554Z,16.58
2017-08-05T02:17:15.144Z,16.58
2017-08-05T02:18:27.646Z,16.57
2017-08-05T02:19:39.872Z,16.51
2017-08-05T02:20:52.726Z,16.47
2017-08-05T02:22:05.041Z,16.49
2017-08-05T02:23:16.985Z,16.37
2017-08-05T02:24:29.551Z,16.39
2017-08-05T02:25:42.173Z,16.44
2017-08-05T02:26:54.439Z,16.29
2017-08-05T02:28:07.025Z,16.39
2017-08-05T02:29:19.637Z,16.32
2017-08-05T02:30:31.883Z,16.26
2017-08-05T02:31:44.503Z,16.25
2017-08-05T02:32:57.093Z,16.25
2017-08-05T02:34:09.346Z,16.22
2017-08-05T02:35:21.908Z,16.09
2017-08-05T02:36:34.486Z,16.12
2017-08-05T02:37:47.058Z,16.09
2017-08-05T02:38:59.645Z,15.94
2017-08-05T02:40:11.951Z,16
2017-08-05T02:41:24.581Z,16.06
2017-08-05T02:42:37.189Z,15.96
2017-08-05T02:43:49.739Z,15.85
2017-08-05T02:45:02.290Z,15.94
2017-08-05T02:46:14.839Z,15.88
2017-08-05T02:47:27.461Z,15.87
2017-08-05T02:48:40.070Z,15.7
2017-08-05T02:49:52.634Z,15.83
2017-08-05T02:51:04.865Z,15.72
2017-08-05T02:52:17.481Z,15.69
2017-08-05T02:53:30.004Z,15.67
2017-08-05T02:54:42.636Z,15.63
2017-08-05T02:55:55.213Z,15.65
2017-08-05T02:57:07.744Z,15.63
2017-08-05T02:58:20.252Z,15.59
2017-08-05T02:59:32.836Z,15.59
2017-08-05T03:00:45.060Z,15.55
2017-08-05T03:01:57.603Z,15.57
2017-08-05T03:03:10.214Z,15.59
2017-08-05T03:04:22.821Z,15.5
2017-08-05T03:05:35.393Z,15.5
2017-08-05T03:06:47.708Z,15.52
2017-08-05T03:07:59.747Z,15.52
2017-08-05T03:09:12.412Z,15.47
2017-08-05T03:10:25.028Z,15.45
2017-08-05T03:11:37.659Z,15.5
2017-08-05T03:12:50.289Z,15.47
2017-08-05T03:14:02.548Z,15.44
2017-08-05T03:15:14.554Z,15.43
2017-08-05T03:16:26.827Z,15.44
2017-08-05T03:17:39.378Z,15.47
2017-08-05T03:18:51.647Z,15.45
2017-08-05T03:20:04.262Z,15.43
2017-08-05T03:21:16.817Z,15.47
2017-08-05T03:22:29.373Z,15.35
2017-08-05T03:23:41.958Z,15.36
2017-08-05T03:24:54.300Z,15.43
2017-08-05T03:26:07.193Z,15.32
2017-08-05T03:27:19.714Z,15.45
2017-08-05T03:28:32.336Z,15.5
2017-08-05T03:29:44.849Z,15.44
2017-08-05T03:30:57.495Z,15.45
2017-08-05T03:32:10.002Z,15.5
2017-08-05T03:33:22.543Z,15.51
2017-08-05T03:34:35.139Z,15.48
2017-08-05T03:35:47.360Z,15.51
2017-08-05T03:37:00.007Z,15.51
2017-08-05T03:38:12.570Z,15.59
2017-08-05T03:39:25.105Z,15.55
2017-08-05T03:40:37.737Z,15.6
2017-08-05T03:41:50.066Z,15.67
2017-08-05T03:43:02.419Z,15.66
2017-08-05T03:44:15.032Z,15.7
2017-08-05T03:45:27.583Z,15.7
2017-08-05T03:46:40.191Z,15.72
2017-08-05T03:47:53.029Z,15.78
2017-08-05T03:49:05.294Z,15.8
2017-08-05T03:50:17.590Z,15.76
2017-08-05T03:51:30.211Z,15.88
2017-08-05T03:52:42.496Z,15.87
2017-08-05T03:53:55.105Z,15.9
2017-08-05T03:55:07.073Z,15.87
2017-08-05T03:56:19.423Z,15.94
2017-08-05T03:57:32.012Z,15.98
2017-08-05T03:58:44.559Z,15.99
2017-08-05T03:59:57.146Z,15.96
2017-08-05T04:01:09.776Z,15.94
2017-08-05T04:02:22.446Z,16.03
2017-08-05T04:03:35.077Z,16.02
2017-08-05T04:04:47.705Z,15.9
2017-08-05T04:06:00.340Z,16.02
2017-08-05T04:07:12.922Z,16.02
2017-08-05T04:08:25.482Z,16
2017-08-05T04:09:38.104Z,16.05
2017-08-05T04:10:50.685Z,16.08
2017-08-05T04:12:03.342Z,16
2017-08-05T04:13:15.897Z,16
2017-08-05T04:14:28.486Z,16.06
2017-08-05T04:15:41.005Z,16.05
2017-08-05T04:16:53.596Z,16.03
2017-08-05T04:18:06.242Z,16
2017-08-05T04:19:18.502Z,16.05
2017-08-05T04:20:31.132Z,16.05
2017-08-05T04:21:43.659Z,16
2017-08-05T04:22:55.958Z,15.94
2017-08-05T04:24:08.571Z,16.02
2017-08-05T04:25:21.186Z,15.98
2017-08-05T04:26:33.781Z,16
2017-08-05T04:27:46.341Z,15.96
2017-08-05T04:28:58.937Z,15.88
2017-08-05T04:30:10.955Z,15.91
2017-08-05T04:31:23.253Z,15.94
2017-08-05T04:32:35.802Z,15.98
2017-08-05T04:33:48.427Z,15.98
2017-08-05T04:35:01.047Z,15.96
2017-08-05T04:36:12.988Z,15.99
2017-08-05T04:37:25.303Z,15.92
2017-08-05T04:38:37.274Z,15.96
2017-08-05T04:39:49.820Z,15.87
2017-08-05T04:41:02.121Z,15.91
2017-08-05T04:42:14.710Z,15.9
2017-08-05T04:43:27.299Z,15.88
2017-08-05T04:44:39.570Z,15.9
2017-08-05T04:45:52.147Z,15.8
2017-08-05T04:47:04.748Z,15.84
2017-08-05T04:48:17.334Z,15.84
2017-08-05T04:49:29.621Z,15.9
2017-08-05T04:50:41.944Z,15.9
2017-08-05T04:51:54.512Z,15.73
2017-08-05T04:53:07.075Z,15.83
2017-08-05T04:54:19.045Z,15.78
2017-08-05T04:55:31.648Z,15.84
2017-08-05T04:56:44.189Z,15.75
2017-08-05T04:57:56.744Z,15.92
2017-08-05T04:59:09.399Z,15.91
2017-08-05T05:00:22.004Z,15.85
2017-08-05T05:01:34.270Z,15.87
2017-08-05T05:02:46.808Z,15.83
2017-08-05T05:03:59.399Z,15.78
2017-08-05T05:05:12.019Z,15.91
2017-08-05T05:06:24.580Z,15.96
2017-08-05T05:07:37.136Z,16
2017-08-05T05:08:49.770Z,15.94
2017-08-05T05:10:02.023Z,15.98
2017-08-05T05:11:14.316Z,15.94
2017-08-05T05:12:26.952Z,15.92
2017-08-05T05:13:39.579Z,16.03
2017-08-05T05:14:52.154Z,16.03
2017-08-05T05:16:04.747Z,16.03
2017-08-05T05:17:16.996Z,16.05
2017-08-05T05:18:29.615Z,15.96
2017-08-05T05:19:41.849Z,16.06
2017-08-05T05:20:54.447Z,16.09
2017-08-05T05:22:07.027Z,16.06
2017-08-05T05:23:19.322Z,16.1
2017-08-05T05:24:31.879Z,16.22
2017-08-05T05:25:44.525Z,16.13
2017-08-05T05:26:56.561Z,16.24
2017-08-05T05:28:08.847Z,16.24
2017-08-05T05:29:20.813Z,16.29
2017-08-05T05:30:33.100Z,16.24
2017-08-05T05:31:45.660Z,16.29
2017-08-05T05:32:57.945Z,16.34
2017-08-05T05:34:10.238Z,16.31
2017-08-05T05:35:22.917Z,16.39
2017-08-05T05:36:35.570Z,16.31
2017-08-05T05:37:48.090Z,16.4
2017-08-05T05:39:00.699Z,16.39
2017-08-05T05:40:13.317Z,16.49
2017-08-05T05:41:25.585Z,16.43
2017-08-05T05:42:38.173Z,16.57
2017-08-05T05:43:50.728Z,16.58
2017-08-05T05:45:03.402Z,16.59
2017-08-05T05:46:16.005Z,16.61
2017-08-05T05:47:28.276Z,16.62
2017-08-05T05:48:40.854Z,16.73
2017-08-05T05:49:53.434Z,16.77
2017-08-05T05:51:05.756Z,16.82
2017-08-05T05:52:18.359Z,16.87
2017-08-05T05:53:31.203Z,16.89
2017-08-05T05:54:43.793Z,16.95
2017-08-05T05:55:56.047Z,16.99
2017-08-05T05:57:08.385Z,16.94
2017-08-05T05:58:20.982Z,17.1
2017-08-05T05:59:32.958Z,17.1
2017-08-05T06:00:45.306Z,17.16
2017-08-05T06:01:57.922Z,17.24
2017-08-05T06:03:09.917Z,17.27
2017-08-05T06:04:22.489Z,17.31
2017-08-05T06:05:35.132Z,17.42
2017-08-05T06:06:47.381Z,17.56
2017-08-05T06:07:59.703Z,17.56
2017-08-05T06:09:11.994Z,17.72
2017-08-05T06:10:24.639Z,17.88
2017-08-05T06:11:37.261Z,18.05
2017-08-05T06:12:49.915Z,18.02
2017-08-05T06:14:02.524Z,18.13
2017-08-05T06:15:14.847Z,18.31
2017-08-05T06:16:27.119Z,18.27
2017-08-05T06:17:39.704Z,18.31
2017-08-05T06:18:52.333Z,18.41
2017-08-05T06:20:04.679Z,18.36
2017-08-05T06:21:16.942Z,18.48
2017-08-05T06:22:29.197Z,18.52
2017-08-05T06:23:41.785Z,18.6
2017-08-05T06:24:54.375Z,18.63
2017-08-05T06:26:06.685Z,18.82
2017-08-05T06:27:18.649Z,19
2017-08-05T06:28:31.275Z,19.09
2017-08-05T06:29:43.547Z,19.42
2017-08-05T06:30:56.120Z,19.52
2017-08-05T06:32:08.700Z,19.63
2017-08-05T06:33:21.267Z,19.89
2017-08-05T06:34:33.574Z,20.15
2017-08-05T06:35:46.154Z,20.37
2017-08-05T06:36:58.478Z,20.8
2017-08-05T06:38:10.707Z,21.25
2017-08-05T06:39:23.331Z,21.44
2017-08-05T06:40:35.918Z,21.78
2017-08-05T06:41:48.736Z,22.19
2017-08-05T06:43:00.661Z,22.52
2017-08-05T06:44:12.983Z,22.88
2017-08-05T06:45:25.297Z,23.16
2017-08-05T06:46:37.970Z,23.64
2017-08-05T06:47:50.527Z,23.92
2017-08-05T06:49:03.236Z,24.43
2017-08-05T06:50:15.827Z,24.69
2017-08-05T06:51:28.124Z,24.94
2017-08-05T06:52:40.754Z,25.29
2017-08-05T06:53:53.326Z,25.55
2017-08-05T06:55:05.593Z,25.74
2017-08-05T06:56:18.183Z,26.01
2017-08-05T06:57:30.729Z,26.29
2017-08-05T06:58:43.304Z,26.56
2017-08-05T06:59:55.837Z,26.7
2017-08-05T07:01:08.425Z,26.89
2017-08-05T07:02:21.087Z,27.23
2017-08-05T07:03:33.346Z,27.3
2017-08-05T07:04:45.913Z,27.53
2017-08-05T07:05:58.201Z,27.75
2017-08-05T07:07:10.881Z,27.79
2017-08-05T07:08:23.167Z,28.01
2017-08-05T07:09:35.478Z,28.09
2017-08-05T07:10:48.068Z,28.13
2017-08-05T07:12:00.403Z,28.37
2017-08-05T07:13:13.011Z,28.57
2017-08-05T07:14:25.674Z,28.71
2017-08-05T07:15:38.234Z,28.8
2017-08-05T07:16:50.521Z,29.07
2017-08-05T07:18:02.826Z,29.21
2017-08-05T07:19:15.186Z,29.42
2017-08-05T07:20:27.911Z,29.62
2017-08-05T07:21:39.921Z,29.71
2017-08-05T07:22:51.933Z,29.84
2017-08-05T07:24:04.491Z,29.92
2017-08-05T07:25:17.339Z,30.02
2017-08-05T07:26:29.891Z,30.16
2017-08-05T07:27:42.525Z,30.2
2017-08-05T07:28:55.108Z,30.21
2017-08-05T07:30:07.746Z,30.4
2017-08-05T07:31:20.380Z,30.44
2017-08-05T07:32:32.945Z,30.52
2017-08-05T07:33:45.536Z,30.7
2017-08-05T07:34:58.171Z,30.65
2017-08-05T07:36:10.415Z,30.85
2017-08-05T07:37:23.051Z,31.04
2017-08-05T07:38:35.615Z,31.14
2017-08-05T07:39:47.909Z,31.13
2017-08-05T07:41:00.610Z,31.15
2017-08-05T07:42:13.252Z,31.33
2017-08-05T07:43:25.815Z,31.45
2017-08-05T07:44:37.829Z,31.52
2017-08-05T07:45:50.445Z,31.6
2017-08-05T07:47:02.935Z,31.64
2017-08-05T07:48:15.499Z,31.74
2017-08-05T07:49:28.067Z,31.69
2017-08-05T07:50:40.671Z,31.85
2017-08-05T07:51:53.312Z,31.79
2017-08-05T07:53:05.924Z,31.87
2017-08-05T07:54:18.282Z,31.82
2017-08-05T07:55:30.624Z,31.89
2017-08-05T07:56:42.919Z,31.97
2017-08-05T07:57:55.532Z,31.98
2017-08-05T07:59:07.783Z,32
2017-08-05T08:00:20.460Z,32
2017-08-05T08:01:32.768Z,32.08
2017-08-05T08:02:45.075Z,32.15
2017-08-05T08:03:57.711Z,32.17
2017-08-05T08:05:10.319Z,32.2
2017-08-05T08:06:22.656Z,32.2
2017-08-05T08:07:35.283Z,32.15
2017-08-05T08:08:47.885Z,32.11
2017-08-05T08:10:00.484Z,32.02
2017-08-05T08:11:12.205Z,32.11
2017-08-05T08:12:24.841Z,31.93
2017-08-05T08:13:37.187Z,31.89
2017-08-05T08:14:49.808Z,31.82
2017-08-05T08:16:02.390Z,31.82
2017-08-05T08:17:14.745Z,31.87
2017-08-05T08:18:27.365Z,31.9
2017-08-05T08:19:40.279Z,32.05
2017-08-05T08:20:52.878Z,31.89
2017-08-05T08:22:05.145Z,31.86
2017-08-05T08:23:17.417Z,31.85
2017-08-05T08:24:29.764Z,31.72
2017-08-05T08:25:42.355Z,31.55
2017-08-05T08:26:54.688Z,31.35
2017-08-05T08:28:07.259Z,31.15
2017-08-05T08:29:19.591Z,30.99
2017-08-05T08:30:31.864Z,30.77
2017-08-05T08:31:44.147Z,30.59
2017-08-05T08:32:56.180Z,30.49
2017-08-05T08:34:08.519Z,30.27
2017-08-05T08:35:21.108Z,30.06
2017-08-05T08:36:33.422Z,29.94
2017-08-05T08:37:45.756Z,29.73
2017-08-05T08:38:58.353Z,29.59
2017-08-05T08:40:10.414Z,29.44
2017-08-05T08:41:23.293Z,29.32
2017-08-05T08:42:35.921Z,29.07
2017-08-05T08:43:48.279Z,28.96
2017-08-05T08:45:00.889Z,28.93
2017-08-05T08:46:12.871Z,28.87
2017-08-05T08:47:25.480Z,28.83
2017-08-05T08:48:37.795Z,28.8
2017-08-05T08:49:50.078Z,28.75
2017-08-05T08:51:02.669Z,28.72
2017-08-05T08:52:14.652Z,28.65
2017-08-05T08:53:27.225Z,28.82
2017-08-05T08:54:39.832Z,28.84
2017-08-05T08:55:52.385Z,28.86
2017-08-05T08:57:04.640Z,28.65
2017-08-05T08:58:17.247Z,28.68
2017-08-05T08:59:29.795Z,28.71
2017-08-05T09:00:42.477Z,28.6
2017-08-05T09:01:54.785Z,28.65
2017-08-05T09:03:07.356Z,28.64
2017-08-05T09:04:19.635Z,28.65
2017-08-05T09:05:32.254Z,28.65
2017-08-05T09:06:44.528Z,28.68
2017-08-05T09:07:57.146Z,28.7
2017-08-05T09:09:09.757Z,28.68
2017-08-05T09:10:22.363Z,28.7
2017-08-05T09:11:35.009Z,28.8
2017-08-05T09:12:47.695Z,28.67
2017-08-05T09:14:00.266Z,28.67
2017-08-05T09:15:12.561Z,28.57
2017-08-05T09:16:24.910Z,28.47
2017-08-05T09:17:36.953Z,28.43
2017-08-05T09:18:49.309Z,28.41
2017-08-05T09:20:01.868Z,28.35
2017-08-05T09:21:14.194Z,28.3
2017-08-05T09:22:26.473Z,28.19
2017-08-05T09:23:38.809Z,28.22
2017-08-05T09:24:51.474Z,28.12
2017-08-05T09:26:04.074Z,28.18
2017-08-05T09:27:16.647Z,28.16
2017-08-05T09:28:29.220Z,28.09
2017-08-05T09:29:41.599Z,28.19
2017-08-05T09:30:54.208Z,28.15
2017-08-05T09:32:06.830Z,28.16
2017-08-05T09:33:19.368Z,28.18
2017-08-05T09:34:31.978Z,28.27
2017-08-05T09:35:44.304Z,28.3
2017-08-05T09:36:56.873Z,28.37
2017-08-05T09:38:09.246Z,28.43
2017-08-05T09:39:21.866Z,28.55
2017-08-05T09:40:34.176Z,28.56
2017-08-05T09:41:46.479Z,28.68
2017-08-05T09:42:59.036Z,28.7
2017-08-05T09:44:11.696Z,28.68
2017-08-05T09:45:24.336Z,28.71
2017-08-05T09:46:36.582Z,28.67
2017-08-05T09:47:48.528Z,28.71
2017-08-05T09:49:00.830Z,28.7
2017-08-05T09:50:13.124Z,28.67
2017-08-05T09:51:25.757Z,28.65
2017-08-05T09:52:38.028Z,28.68
2017-08-05T09:53:50.584Z,28.67
2017-08-05T09:55:02.851Z,28.57
2017-08-05T09:56:14.835Z,28.71
2017-08-05T09:57:27.470Z,28.74
2017-08-05T09:58:40.140Z,28.72
2017-08-05T09:59:52.703Z,28.74
2017-08-05T10:01:05.311Z,28.75
2017-08-05T10:02:17.889Z,28.8
2017-08-05T10:03:30.529Z,28.78
2017-08-05T10:04:42.819Z,28.86
2017-08-05T10:05:55.367Z,28.94
2017-08-05T10:07:07.915Z,28.94
2017-08-05T10:08:20.249Z,29.07
2017-08-05T10:09:32.839Z,29.02
2017-08-05T10:10:45.480Z,29.06
2017-08-05T10:11:58.061Z,29.06
2017-08-05T10:13:10.689Z,29.03
2017-08-05T10:14:23.423Z,29.03
2017-08-05T10:15:36.090Z,29.06
2017-08-05T10:16:48.731Z,29.06
2017-08-05T10:18:01.299Z,29.05
2017-08-05T10:19:13.306Z,29.12
2017-08-05T10:20:25.915Z,29.03
2017-08-05T10:21:37.948Z,29.05
2017-08-05T10:22:50.576Z,28.96
2017-08-05T10:24:02.905Z,28.93
2017-08-05T10:25:15.156Z,28.8
2017-08-05T10:26:27.769Z,28.78
2017-08-05T10:27:40.400Z,28.7
2017-08-05T10:28:52.460Z,28.56
2017-08-05T10:30:04.471Z,28.47
2017-08-05T10:31:16.780Z,28.34
2017-08-05T10:32:29.383Z,28.27
2017-08-05T10:33:41.752Z,28.09
2017-08-05T10:34:54.364Z,28.09
2017-08-05T10:36:06.399Z,27.82
2017-08-05T10:37:19.002Z,27.73
2017-08-05T10:38:31.609Z,27.67
2017-08-05T10:39:44.201Z,27.5
2017-08-05T10:40:56.496Z,27.38
2017-08-05T10:42:09.103Z,27.4
2017-08-05T10:43:21.356Z,27.28
2017-08-05T10:44:33.937Z,27.26
2017-08-05T10:45:46.536Z,27.15
2017-08-05T10:46:58.819Z,26.97
2017-08-05T10:48:11.096Z,26.92
2017-08-05T10:49:23.393Z,26.81
2017-08-05T10:50:35.990Z,26.66
2017-08-05T10:51:48.560Z,26.68
2017-08-05T10:53:00.949Z,26.63
2017-08-05T10:54:13.562Z,26.56
2017-08-05T10:55:25.896Z,26.61
2017-08-05T10:56:38.530Z,26.61
2017-08-05T10:57:50.806Z,26.61
2017-08-05T10:59:02.787Z,26.52
2017-08-05T11:00:15.085Z,26.26
2017-08-05T11:01:27.427Z,26.27
2017-08-05T11:02:40.076Z,26.33
2017-08-05T11:03:52.675Z,26.23
2017-08-05T11:05:04.714Z,26.24
2017-08-05T11:06:17.268Z,26.22
2017-08-05T11:07:29.930Z,26.07
2017-08-05T11:08:41.931Z,25.96
2017-08-05T11:09:54.517Z,25.86
2017-08-05T11:11:06.819Z,25.74
2017-08-05T11:12:19.063Z,25.59
2017-08-05T11:13:31.739Z,25.46
2017-08-05T11:14:43.710Z,25.31
2017-08-05T11:15:56.016Z,25.15
2017-08-05T11:17:08.674Z,24.93
2017-08-05T11:18:21.270Z,24.77
2017-08-05T11:19:33.567Z,24.56
2017-08-05T11:20:46.113Z,24.36
2017-08-05T11:21:58.717Z,24.13
2017-08-05T11:23:10.696Z,23.99
2017-08-05T11:24:22.941Z,23.74
2017-08-05T11:25:35.548Z,23.52
2017-08-05T11:26:47.867Z,23.4
2017-08-05T11:28:00.418Z,23.25
2017-08-05T11:29:12.346Z,23.25
2017-08-05T11:30:24.347Z,23.08
2017-08-05T11:31:36.892Z,22.96
2017-08-05T11:32:49.447Z,22.88
2017-08-05T11:34:02.034Z,22.76
2017-08-05T11:35:14.280Z,22.68
2017-08-05T11:36:26.316Z,22.61
2017-08-05T11:37:38.572Z,22.46
2017-08-05T11:38:51.199Z,22.43
2017-08-05T11:40:03.489Z,22.33
2017-08-05T11:41:16.110Z,22.31
2017-08-05T11:42:28.669Z,22.25
2017-08-05T11:43:41.280Z,22.28
2017-08-05T11:44:53.580Z,22.25
2017-08-05T11:46:05.913Z,22.22
2017-08-05T11:47:18.272Z,22.25
2017-08-05T11:48:30.849Z,22.19
2017-08-05T11:49:43.392Z,22.21
2017-08-05T11:50:55.958Z,22.1
2017-08-05T11:52:08.271Z,22.14
2017-08-05T11:53:20.913Z,22.08
2017-08-05T11:54:33.521Z,22.08
2017-08-05T11:55:45.794Z,22.07
2017-08-05T11:56:58.394Z,22.21
2017-08-05T11:58:10.053Z,22.23
2017-08-05T11:59:22.655Z,22.23
2017-08-05T12:00:34.956Z,22.28
2017-08-05T12:01:47.515Z,22.33
2017-08-05T12:03:00.076Z,22.43
2017-08-05T12:04:12.645Z,22.55
2017-08-05T12:05:24.296Z,22.58
2017-08-05T12:06:36.924Z,22.67
2017-08-05T12:07:49.521Z,22.7
2017-08-05T12:09:02.128Z,22.74
2017-08-05T12:10:14.353Z,22.95
2017-08-05T12:11:27.044Z,22.92
2017-08-05T12:12:39.332Z,23.06
2017-08-05T12:13:51.981Z,23.11
2017-08-05T12:15:04.301Z,23.18
2017-08-05T12:16:16.963Z,23.23
2017-08-05T12:17:29.243Z,23.23
2017-08-05T12:18:41.851Z,23.37
2017-08-05T12:19:54.160Z,23.37
2017-08-05T12:21:06.732Z,23.34
2017-08-05T12:22:19.304Z,23.4
2017-08-05T12:23:31.603Z,23.23
2017-08-05T12:24:43.873Z,23.02
2017-08-05T12:25:56.141Z,22.93
2017-08-05T12:27:08.713Z,22.88
2017-08-05T12:28:21.314Z,22.96
2017-08-05T12:29:33.903Z,22.93
2017-08-05T12:30:46.524Z,22.92
2017-08-05T12:31:59.137Z,22.81
2017-08-05T12:33:11.101Z,22.8
2017-08-05T12:34:23.444Z,22.92
2017-08-05T12:35:36.333Z,23.06
2017-08-05T12:36:48.683Z,23.25
2017-08-05T12:38:01.216Z,23.37
2017-08-05T12:39:13.509Z,23.54
2017-08-05T12:40:26.092Z,23.52
2017-08-05T12:41:38.672Z,23.71
2017-08-05T12:42:51.241Z,23.86
2017-08-05T12:44:03.537Z,23.82
2017-08-05T12:45:16.112Z,23.81
2017-08-05T12:46:28.415Z,23.79
2017-08-05T12:47:41.029Z,23.76
2017-08-05T12:48:53.614Z,23.69
2017-08-05T12:50:05.922Z,23.64
2017-08-05T12:51:18.206Z,23.34
2017-08-05T12:52:30.812Z,23.37
2017-08-05T12:53:43.386Z,23.21
2017-08-05T12:54:55.997Z,23.06
2017-08-05T12:56:08.543Z,22.84
2017-08-05T12:57:21.191Z,22.92
2017-08-05T12:58:33.870Z,22.86
2017-08-05T12:59:46.176Z,22.89
2017-08-05T13:00:58.522Z,22.89
2017-08-05T13:02:11.136Z,22.95
2017-08-05T13:03:23.439Z,22.91
2017-08-05T13:04:35.702Z,22.89
2017-08-05T13:05:47.938Z,22.81
2017-08-05T13:07:00.234Z,22.88
2017-08-05T13:08:12.573Z,22.86
2017-08-05T13:09:24.811Z,22.84
2017-08-05T13:10:37.139Z,22.92
2017-08-05T13:11:49.718Z,22.92
2017-08-05T13:13:01.988Z,22.96
2017-08-05T13:14:13.981Z,22.95
2017-08-05T13:15:26.299Z,22.96
2017-08-05T13:16:38.945Z,22.99
2017-08-05T13:17:51.515Z,22.98
2017-08-05T13:19:04.154Z,22.98
2017-08-05T13:20:16.450Z,22.89
2017-08-05T13:21:29.050Z,22.81
2017-08-05T13:22:41.362Z,22.93
2017-08-05T13:23:53.673Z,22.96
2017-08-05T13:25:06.219Z,22.92
2017-08-05T13:26:18.460Z,22.93
2017-08-05T13:27:30.999Z,23.04
2017-08-05T13:28:43.610Z,23.06
2017-08-05T13:29:55.875Z,23.13
2017-08-05T13:31:08.449Z,23.16
2017-08-05T13:32:21.070Z,23.14
2017-08-05T13:33:33.688Z,23.16
2017-08-05T13:34:46.251Z,23.07
2017-08-05T13:35:58.789Z,23.04
2017-08-05T13:37:11.104Z,22.86
2017-08-05T13:38:23.427Z,22.7
2017-08-05T13:39:35.748Z,22.55
2017-08-05T13:40:48.314Z,22.62
2017-08-05T13:42:00.926Z,22.4
2017-08-05T13:43:13.557Z,22.43
2017-08-05T13:44:26.150Z,22.33
2017-08-05T13:45:38.423Z,22.28
2017-08-05T13:46:51.035Z,22.23
2017-08-05T13:48:03.618Z,22.1
2017-08-05T13:49:14.986Z,22.04
2017-08-05T13:50:27.562Z,22.04
2017-08-05T13:51:40.150Z,21.91
2017-08-05T13:52:52.114Z,21.8
2017-08-05T13:54:04.694Z,21.66
2017-08-05T13:55:16.964Z,21.63
2017-08-05T13:56:29.221Z,21.5
2017-08-05T13:57:41.513Z,21.48
2017-08-05T13:58:54.126Z,21.33
2017-08-05T14:00:06.697Z,21.14
2017-08-05T14:01:19.028Z,21.17
2017-08-05T14:02:31.041Z,21.08
2017-08-05T14:03:43.609Z,20.83
2017-08-05T14:04:56.209Z,20.37
2017-08-05T14:06:08.502Z,20.18
2017-08-05T14:07:21.126Z,19.89
2017-08-05T14:08:33.743Z,19.78
2017-08-05T14:09:46.346Z,19.63
2017-08-05T14:10:58.990Z,19.44
2017-08-05T14:12:11.523Z,19.32
2017-08-05T14:13:24.070Z,19.22
2017-08-05T14:14:36.066Z,19.22
2017-08-05T14:15:48.637Z,19.2
2017-08-05T14:17:00.907Z,19.09
2017-08-05T14:18:13.489Z,19.12
2017-08-05T14:19:26.088Z,18.97
2017-08-05T14:20:38.059Z,18.98
2017-08-05T14:21:50.684Z,18.98
2017-08-05T14:23:02.961Z,18.92
2017-08-05T14:24:15.570Z,18.92
2017-08-05T14:25:28.214Z,18.92
2017-08-05T14:26:40.456Z,18.81
2017-08-05T14:27:53.062Z,18.85
2017-08-05T14:29:05.656Z,18.78
2017-08-05T14:30:18.294Z,18.86
2017-08-05T14:31:30.645Z,18.85
2017-08-05T14:32:43.236Z,18.83
2017-08-05T14:33:55.519Z,18.83
2017-08-05T14:35:08.128Z,18.73
2017-08-05T14:36:20.166Z,18.79
2017-08-05T14:37:32.738Z,18.73
2017-08-05T14:38:45.353Z,18.78
2017-08-05T14:39:57.963Z,18.67
2017-08-05T14:41:10.257Z,18.64
2017-08-05T14:42:22.878Z,18.66
2017-08-05T14:43:34.776Z,18.81
2017-08-05T14:44:47.399Z,18.74
2017-08-05T14:46:00.010Z,18.85
2017-08-05T14:47:12.616Z,18.89
2017-08-05T14:48:24.850Z,18.96
2017-08-05T14:49:37.101Z,19.07
2017-08-05T14:50:49.706Z,19.17
2017-08-05T14:52:01.972Z,19.22
2017-08-05T14:53:14.566Z,19.41
2017-08-05T14:54:26.892Z,19.44
2017-08-05T14:55:39.546Z,19.42
2017-08-05T14:56:51.528Z,19.47
2017-08-05T14:58:04.125Z,19.59
2017-08-05T14:59:16.759Z,19.66
2017-08-05T15:00:29.393Z,19.7
2017-08-05T15:01:42.238Z,19.74
2017-08-05T15:02:54.851Z,19.78
2017-08-05T15:04:07.130Z,19.93
2017-08-05T15:05:19.753Z,19.94
2017-08-05T15:06:31.999Z,20.04
2017-08-05T15:07:44.319Z,20.04
2017-08-05T15:08:56.933Z,20.03
2017-08-05T15:10:09.473Z,20.07
2017-08-05T15:11:21.481Z,20.04
2017-08-05T15:12:34.088Z,20.12
2017-08-05T15:13:46.106Z,20.14
2017-08-05T15:14:58.697Z,20.12
2017-08-05T15:16:10.982Z,20.18
2017-08-05T15:17:23.224Z,20.11
2017-08-05T15:18:35.794Z,20.03
2017-08-05T15:19:48.433Z,20.07
2017-08-05T15:21:00.677Z,19.99
2017-08-05T15:22:13.195Z,20.03
2017-08-05T15:23:25.718Z,20.02
2017-08-05T15:24:38.237Z,20.02
2017-08-05T15:25:50.907Z,20.03
2017-08-05T15:27:03.130Z,20.11
2017-08-05T15:28:15.456Z,20.12
2017-08-05T15:29:28.123Z,20.04
2017-08-05T15:30:40.773Z,20.14
2017-08-05T15:31:53.354Z,20.15
2017-08-05T15:33:05.939Z,20.18
2017-08-05T15:34:18.569Z,20.17
2017-08-05T15:35:30.837Z,20.04
2017-08-05T15:36:43.548Z,20.11